createdAt,value
2022-09-11T00:01:16.588Z,86.52
2022-09-11T00:03:46.197Z,85.93
2022-09-11T00:06:27.503Z,87.24
2022-09-11T00:09:01.294Z,86.46
2022-09-11T00:11:31.754Z,86.30
2022-09-11T00:14:00.478Z,85.91
2022-09-11T00:16:30.988Z,87.03
2022-09-11T00:19:00.706Z,87.23
2022-09-11T00:21:29.347Z,85.88
2022-09-11T00:23:59.024Z,86.13
2022-09-11T00:26:27.701Z,86.50
2022-09-11T00:28:57.183Z,86.72
2022-09-11T00:31:27.903Z,86.64
2022-09-11T00:33:56.350Z,86.67
2022-09-11T00:36:26.108Z,86.39
2022-09-11T00:38:54.641Z,86.72
2022-09-11T00:41:28.432Z,87.60
2022-09-11T00:44:02.732Z,87.56
2022-09-11T00:46:36.195Z,87.83
2022-09-11T00:49:14.444Z,87.95
2022-09-11T00:51:43.091Z,87.49
2022-09-11T00:54:14.127Z,87.78
2022-09-11T00:56:44.405Z,87.84
2022-09-11T00:59:14.016Z,87.52
2022-09-11T01:01:42.001Z,87.91
2022-09-11T01:04:10.432Z,87.70
2022-09-11T01:06:38.412Z,88.16
2022-09-11T01:09:06.374Z,87.89
2022-09-11T01:11:51.967Z,87.92
2022-09-11T01:14:30.210Z,88.21
2022-09-11T01:17:12.740Z,88.13
2022-09-11T01:19:59.005Z,87.96
2022-09-11T01:22:46.661Z,87.90
2022-09-11T01:25:27.356Z,87.80
2022-09-11T01:27:58.287Z,88.47
2022-09-11T01:30:32.133Z,87.93
2022-09-11T01:33:12.271Z,87.15
2022-09-11T01:35:56.464Z,87.34
2022-09-11T01:38:31.589Z,88.06
2022-09-11T01:41:07.773Z,87.50
2022-09-11T01:43:41.296Z,87.53
2022-09-11T01:46:12.186Z,87.61
2022-09-11T01:48:45.680Z,87.84
2022-09-11T01:51:18.118Z,87.61
2022-09-11T01:53:50.704Z,87.59
2022-09-11T01:56:24.483Z,87.86
2022-09-11T01:59:00.362Z,87.52
2022-09-11T02:01:34.032Z,87.47
2022-09-11T02:04:07.407Z,87.46
2022-09-11T02:06:42.170Z,87.54
2022-09-11T02:09:15.110Z,87.40
2022-09-11T02:11:47.170Z,87.77
2022-09-11T02:14:24.655Z,88.13
2022-09-11T02:17:04.424Z,87.71
2022-09-11T02:19:32.959Z,88.05
2022-09-11T02:22:01.135Z,87.88
2022-09-11T02:24:29.632Z,87.69
2022-09-11T02:27:02.430Z,87.86
2022-09-11T02:29:34.174Z,87.98
2022-09-11T02:32:03.831Z,88.18
2022-09-11T02:34:34.748Z,88.52
2022-09-11T02:37:15.141Z,88.58
2022-09-11T02:39:58.875Z,88.17
2022-09-11T02:42:36.586Z,88.28
2022-09-11T02:45:19.360Z,88.46
2022-09-11T02:47:56.529Z,88.34
2022-09-11T02:50:30.754Z,88.76
2022-09-11T02:53:05.548Z,89.10
2022-09-11T02:55:44.607Z,89.28
2022-09-11T02:58:21.744Z,88.55
2022-09-11T03:00:51.908Z,88.74
2022-09-11T03:03:21.140Z,88.45
2022-09-11T03:05:49.366Z,88.06
2022-09-11T03:08:18.730Z,88.10
2022-09-11T03:10:46.963Z,87.77
2022-09-11T03:13:15.273Z,88.11
2022-09-11T03:15:45.900Z,87.99
2022-09-11T03:18:15.882Z,87.47
2022-09-11T03:20:45.557Z,88.27
2022-09-11T03:23:13.661Z,88.92
2022-09-11T03:25:42.413Z,88.65
2022-09-11T03:28:11.736Z,89.45
2022-09-11T03:30:41.640Z,89.00
2022-09-11T03:33:11.367Z,89.68
2022-09-11T03:35:40.591Z,89.00
2022-09-11T03:38:09.214Z,89.53
2022-09-11T03:40:39.063Z,89.29
2022-09-11T03:43:06.969Z,89.56
2022-09-11T03:45:34.974Z,89.52
2022-09-11T03:48:03.328Z,89.75
2022-09-11T03:50:33.033Z,89.58
2022-09-11T03:53:02.786Z,89.90
2022-09-11T03:55:31.640Z,89.48
2022-09-11T03:58:00.992Z,89.59
2022-09-11T04:00:29.552Z,89.47
2022-09-11T04:02:58.446Z,88.98
2022-09-11T04:05:36.220Z,89.36
2022-09-11T04:08:06.408Z,89.30
2022-09-11T04:10:35.777Z,89.05
2022-09-11T04:13:04.584Z,88.73
2022-09-11T04:15:32.975Z,88.89
2022-09-11T04:18:05.287Z,88.95
2022-09-11T04:20:34.706Z,88.78
2022-09-11T04:23:03.033Z,88.99
2022-09-11T04:25:33.523Z,89.02
2022-09-11T04:28:04.971Z,89.24
2022-09-11T04:30:35.766Z,89.40
2022-09-11T04:33:04.130Z,88.95
2022-09-11T04:35:32.176Z,88.91
2022-09-11T04:38:01.763Z,89.02
2022-09-11T04:40:30.156Z,89.36
2022-09-11T04:43:00.967Z,89.35
2022-09-11T04:45:31.015Z,89.26
2022-09-11T04:47:59.010Z,88.96
2022-09-11T04:50:28.452Z,88.88
2022-09-11T04:53:13.832Z,88.94
2022-09-11T04:55:43.359Z,89.22
2022-09-11T04:58:13.934Z,89.47
2022-09-11T05:00:42.027Z,89.15
2022-09-11T05:03:10.724Z,89.58
2022-09-11T05:05:39.015Z,89.19
2022-09-11T05:08:08.643Z,88.96
2022-09-11T05:10:38.865Z,88.89
2022-09-11T05:13:07.067Z,89.22
2022-09-11T05:15:36.371Z,88.98
2022-09-11T05:18:05.361Z,88.86
2022-09-11T05:20:33.418Z,88.58
2022-09-11T05:23:03.188Z,89.17
2022-09-11T05:25:32.212Z,89.78
2022-09-11T05:28:00.331Z,89.58
2022-09-11T05:30:29.610Z,90.53
2022-09-11T05:32:59.331Z,90.54
2022-09-11T05:35:32.088Z,89.97
2022-09-11T05:38:00.731Z,89.71
2022-09-11T05:40:28.905Z,89.88
2022-09-11T05:42:56.867Z,89.97
2022-09-11T05:45:25.647Z,90.34
2022-09-11T05:47:55.888Z,90.54
2022-09-11T05:50:25.772Z,90.32
2022-09-11T05:52:54.382Z,89.83
2022-09-11T05:55:22.353Z,89.82
2022-09-11T05:57:53.287Z,89.59
2022-09-11T06:00:22.378Z,89.86
2022-09-11T06:02:54.208Z,89.94
2022-09-11T06:05:25.610Z,89.84
2022-09-11T06:07:54.874Z,90.04
2022-09-11T06:10:22.947Z,89.84
2022-09-11T06:12:51.158Z,89.68
2022-09-11T06:15:42.902Z,89.64
2022-09-11T06:18:07.427Z,89.73
2022-09-11T06:20:36.956Z,89.89
2022-09-11T06:23:09.408Z,89.45
2022-09-11T06:25:38.854Z,89.35
2022-09-11T06:28:06.909Z,89.29
2022-09-11T06:30:35.824Z,88.86
2022-09-11T06:33:03.800Z,88.55
2022-09-11T06:35:31.818Z,88.35
2022-09-11T06:38:02.755Z,88.25
2022-09-11T06:40:30.914Z,88.13
2022-09-11T06:43:00.202Z,88.06
2022-09-11T06:45:31.125Z,87.53
2022-09-11T06:47:59.035Z,87.38
2022-09-11T06:50:33.947Z,87.61
2022-09-11T06:53:08.475Z,87.01
2022-09-11T06:55:40.286Z,86.84
2022-09-11T06:58:11.937Z,86.66
2022-09-11T07:00:40.583Z,86.60
2022-09-11T07:03:09.953Z,86.22
2022-09-11T07:05:38.139Z,86.08
2022-09-11T07:08:06.228Z,85.77
2022-09-11T07:10:38.730Z,86.17
2022-09-11T07:13:07.755Z,86.29
2022-09-11T07:15:35.735Z,85.06
2022-09-11T07:18:04.136Z,85.17
2022-09-11T07:20:32.300Z,85.19
2022-09-11T07:23:00.347Z,84.94
2022-09-11T07:25:30.759Z,85.27
2022-09-11T07:28:00.301Z,85.03
2022-09-11T07:30:28.666Z,85.00
2022-09-11T07:32:59.214Z,85.06
2022-09-11T07:35:27.380Z,84.20
2022-09-11T07:37:57.174Z,84.02
2022-09-11T07:40:27.812Z,84.16
2022-09-11T07:43:00.136Z,83.70
2022-09-11T07:45:29.152Z,82.96
2022-09-11T07:47:57.674Z,82.83
2022-09-11T07:50:26.595Z,83.17
2022-09-11T07:52:56.363Z,83.09
2022-09-11T07:55:24.673Z,83.12
2022-09-11T07:57:54.802Z,82.93
2022-09-11T08:00:25.526Z,82.11
2022-09-11T08:03:05.676Z,81.23
2022-09-11T08:05:37.243Z,81.56
2022-09-11T08:08:05.896Z,81.55
2022-09-11T08:10:34.411Z,81.06
2022-09-11T08:13:05.934Z,80.37
2022-09-11T08:15:38.737Z,79.36
2022-09-11T08:18:08.463Z,79.45
2022-09-11T08:20:36.451Z,78.90
2022-09-11T08:23:04.419Z,78.96
2022-09-11T08:25:34.351Z,78.25
2022-09-11T08:28:02.601Z,77.99
2022-09-11T08:30:30.970Z,77.64
2022-09-11T08:33:01.413Z,76.93
2022-09-11T08:35:29.449Z,76.39
2022-09-11T08:37:58.671Z,75.19
2022-09-11T08:40:28.420Z,74.80
2022-09-11T08:43:03.094Z,73.98
2022-09-11T08:45:36.303Z,72.85
2022-09-11T08:48:09.278Z,74.56
2022-09-11T08:50:41.129Z,73.17
2022-09-11T08:53:16.252Z,73.16
2022-09-11T08:55:47.831Z,73.32
2022-09-11T08:58:26.300Z,73.63
2022-09-11T09:01:03.922Z,72.86
2022-09-11T09:03:56.256Z,73.53
2022-09-11T09:06:49.913Z,74.15
2022-09-11T09:09:28.937Z,74.40
2022-09-11T09:12:05.541Z,74.36
2022-09-11T09:15:29.268Z,74.40
2022-09-11T09:18:02.790Z,73.31
2022-09-11T09:20:36.203Z,73.33
2022-09-11T09:23:12.637Z,72.50
2022-09-11T09:25:43.960Z,72.23
2022-09-11T09:28:20.914Z,71.84
2022-09-11T09:30:53.691Z,70.96
2022-09-11T09:33:30.789Z,70.98
2022-09-11T09:36:13.069Z,70.52
2022-09-11T09:38:41.615Z,69.68
2022-09-11T09:41:22.383Z,69.34
2022-09-11T09:44:04.753Z,69.26
2022-09-11T09:46:41.989Z,68.59
2022-09-11T09:49:11.366Z,68.49
2022-09-11T09:51:41.097Z,68.63
2022-09-11T09:54:15.960Z,67.77
2022-09-11T09:56:45.907Z,67.87
2022-09-11T09:59:18.300Z,67.30
2022-09-11T10:01:50.153Z,67.30
2022-09-11T10:04:22.231Z,67.09
2022-09-11T10:06:53.623Z,67.01
2022-09-11T10:09:26.894Z,67.05
2022-09-11T10:12:03.474Z,66.85
2022-09-11T10:14:50.922Z,66.75
2022-09-11T10:17:24.775Z,66.50
2022-09-11T10:19:57.006Z,66.32
2022-09-11T10:22:29.643Z,65.88
2022-09-11T10:25:02.374Z,65.59
2022-09-11T10:27:36.341Z,66.18
2022-09-11T10:30:05.177Z,65.29
2022-09-11T10:32:40.452Z,65.20
2022-09-11T10:35:11.079Z,65.09
2022-09-11T10:37:40.431Z,65.27
2022-09-11T10:40:20.076Z,66.42
2022-09-11T10:42:50.253Z,65.40
2022-09-11T10:45:20.052Z,64.85
2022-09-11T10:47:48.440Z,65.49
2022-09-11T10:50:25.645Z,65.12
2022-09-11T10:53:08.549Z,65.45
2022-09-11T10:55:41.203Z,65.74
2022-09-11T10:58:17.270Z,66.85
2022-09-11T11:00:45.284Z,68.00
2022-09-11T11:03:18.017Z,68.43
2022-09-11T11:05:59.585Z,67.41
2022-09-11T11:08:57.321Z,67.66
2022-09-11T11:11:40.382Z,67.33
2022-09-11T11:14:28.111Z,67.17
2022-09-11T11:17:03.046Z,66.56
2022-09-11T11:19:44.599Z,66.35
2022-09-11T11:22:23.616Z,65.52
2022-09-11T11:25:04.140Z,64.54
2022-09-11T11:27:52.982Z,62.69
2022-09-11T11:30:22.504Z,61.19
2022-09-11T11:33:12.422Z,58.57
2022-09-11T11:35:47.151Z,59.38
2022-09-11T11:38:23.005Z,58.83
2022-09-11T11:40:59.339Z,58.00
2022-09-11T11:43:31.851Z,59.32
2022-09-11T11:46:05.465Z,58.62
2022-09-11T11:48:39.507Z,59.99
2022-09-11T11:51:12.713Z,61.90
2022-09-11T11:53:47.502Z,61.55
2022-09-11T11:56:28.802Z,61.29
2022-09-11T11:59:01.901Z,59.34
2022-09-11T12:01:33.511Z,60.00
2022-09-11T12:04:11.407Z,61.65
2022-09-11T12:06:39.447Z,61.21
2022-09-11T12:09:10.930Z,60.53
2022-09-11T12:11:40.777Z,61.12
2022-09-11T12:14:21.372Z,59.94
2022-09-11T12:16:49.346Z,58.56
2022-09-11T12:19:20.820Z,57.62
2022-09-11T12:22:11.779Z,57.48
2022-09-11T12:24:59.016Z,56.86
2022-09-11T12:27:52.118Z,57.47
2022-09-11T12:30:33.472Z,56.70
2022-09-11T12:33:02.515Z,56.95
2022-09-11T12:35:41.473Z,56.23
2022-09-11T12:38:21.892Z,54.02
2022-09-11T12:40:54.418Z,54.29
2022-09-11T12:43:46.712Z,54.83
2022-09-11T12:46:53.398Z,54.67
2022-09-11T12:49:23.814Z,54.13
2022-09-11T12:51:54.344Z,54.42
2022-09-11T12:54:27.289Z,53.78
2022-09-11T12:57:02.700Z,54.43
2022-09-11T12:59:37.961Z,54.02
2022-09-11T13:02:18.544Z,54.50
2022-09-11T13:04:48.521Z,52.49
2022-09-11T13:07:28.644Z,52.73
2022-09-11T13:10:07.985Z,55.20
2022-09-11T13:12:50.758Z,55.22
2022-09-11T13:15:38.580Z,55.19
2022-09-11T13:18:25.089Z,54.81
2022-09-11T13:21:13.359Z,54.19
2022-09-11T13:23:43.049Z,54.22
2022-09-11T13:26:19.155Z,54.09
2022-09-11T13:28:50.637Z,55.71
2022-09-11T13:31:26.189Z,55.77
2022-09-11T13:33:55.168Z,56.84
2022-09-11T13:36:25.710Z,56.74
2022-09-11T13:38:57.006Z,57.44
2022-09-11T13:41:29.831Z,58.91
2022-09-11T13:43:59.989Z,58.99
2022-09-11T13:46:31.411Z,59.21
2022-09-11T13:49:14.871Z,59.16
2022-09-11T13:51:46.351Z,59.18
2022-09-11T13:54:16.948Z,59.33
2022-09-11T13:56:48.125Z,59.38
2022-09-11T13:59:27.725Z,59.66
2022-09-11T14:02:00.811Z,57.85
2022-09-11T14:04:29.744Z,57.33
2022-09-11T14:06:58.037Z,53.02
2022-09-11T14:09:26.113Z,52.30
2022-09-11T14:11:54.079Z,53.31
2022-09-11T14:14:26.024Z,54.54
2022-09-11T14:16:59.115Z,55.27
2022-09-11T14:19:30.685Z,54.40
2022-09-11T14:22:02.790Z,56.04
2022-09-11T14:24:38.201Z,56.85
2022-09-11T14:27:36.598Z,56.84
2022-09-11T14:30:36.887Z,57.88
2022-09-11T14:33:22.743Z,57.77
2022-09-11T14:35:51.393Z,58.46
2022-09-11T14:38:21.489Z,59.60
2022-09-11T14:40:53.132Z,59.75
2022-09-11T14:43:26.876Z,60.06
2022-09-11T14:45:55.618Z,59.75
2022-09-11T14:48:26.564Z,60.35
2022-09-11T14:50:54.794Z,58.48
2022-09-11T14:53:31.030Z,56.77
2022-09-11T14:56:00.521Z,54.86
2022-09-11T14:58:29.839Z,55.06
2022-09-11T15:00:58.670Z,53.92
2022-09-11T15:03:29.910Z,53.43
2022-09-11T15:05:59.519Z,52.81
2022-09-11T15:08:27.546Z,51.94
2022-09-11T15:10:55.747Z,51.63
2022-09-11T15:13:23.777Z,51.57
2022-09-11T15:15:53.522Z,51.34
2022-09-11T15:18:21.909Z,51.53
2022-09-11T15:20:51.470Z,50.89
2022-09-11T15:23:19.768Z,51.94
2022-09-11T15:25:47.996Z,50.57
2022-09-11T15:28:16.233Z,51.47
2022-09-11T15:30:44.758Z,51.85
2022-09-11T15:33:12.759Z,51.75
2022-09-11T15:35:40.810Z,51.87
2022-09-11T15:38:10.189Z,51.56
2022-09-11T15:40:39.186Z,52.42
2022-09-11T15:43:07.207Z,52.51
2022-09-11T15:45:35.241Z,52.43
2022-09-11T15:48:03.617Z,51.73
2022-09-11T15:50:32.410Z,52.10
2022-09-11T15:53:01.862Z,53.52
2022-09-11T15:55:31.270Z,54.52
2022-09-11T15:58:52.386Z,54.38
2022-09-11T16:01:23.017Z,54.39
2022-09-11T16:03:52.112Z,54.44
2022-09-11T16:06:21.068Z,54.16
2022-09-11T16:09:02.286Z,54.51
2022-09-11T16:11:31.845Z,54.67
2022-09-11T16:14:01.796Z,54.54
2022-09-11T16:16:29.984Z,54.79
2022-09-11T16:18:58.561Z,54.58
2022-09-11T16:21:27.134Z,54.80
2022-09-11T16:24:00.659Z,55.41
2022-09-11T16:26:31.618Z,55.82
2022-09-11T16:29:02.085Z,56.09
2022-09-11T16:31:30.103Z,56.68
2022-09-11T16:33:58.650Z,56.14
2022-09-11T16:36:29.710Z,56.83
2022-09-11T16:38:57.757Z,57.41
2022-09-11T16:41:25.751Z,57.85
2022-09-11T16:43:54.632Z,58.07
2022-09-11T16:46:26.087Z,58.57
2022-09-11T16:48:59.829Z,59.50
2022-09-11T16:51:30.308Z,60.36
2022-09-11T16:53:58.627Z,60.77
2022-09-11T16:56:27.283Z,60.68
2022-09-11T16:58:55.682Z,61.19
2022-09-11T17:01:27.343Z,61.70
2022-09-11T17:03:58.037Z,62.23
2022-09-11T17:06:30.145Z,62.31
2022-09-11T17:09:00.276Z,62.84
2022-09-11T17:11:30.950Z,62.85
2022-09-11T17:14:01.604Z,63.13
2022-09-11T17:16:34.129Z,63.33
2022-09-11T17:19:02.348Z,63.42
2022-09-11T17:21:35.706Z,63.85
2022-09-11T17:24:05.578Z,64.33
2022-09-11T17:26:34.599Z,64.38
2022-09-11T17:29:03.517Z,64.82
2022-09-11T17:31:33.366Z,65.10
2022-09-11T17:34:01.365Z,65.23
2022-09-11T17:36:29.450Z,64.95
2022-09-11T17:38:59.391Z,65.45
2022-09-11T17:41:27.792Z,65.66
2022-09-11T17:43:55.786Z,65.68
2022-09-11T17:46:24.833Z,66.01
2022-09-11T17:48:54.134Z,66.06
2022-09-11T17:51:24.102Z,66.82
2022-09-11T17:53:56.234Z,67.03
2022-09-11T17:56:28.270Z,67.37
2022-09-11T17:58:59.680Z,67.49
2022-09-11T18:01:29.012Z,68.09
2022-09-11T18:03:59.821Z,68.24
2022-09-11T18:06:29.672Z,68.51
2022-09-11T18:09:01.890Z,68.60
2022-09-11T18:11:30.921Z,69.04
2022-09-11T18:14:00.522Z,69.07
2022-09-11T18:16:28.687Z,69.37
2022-09-11T18:18:58.071Z,69.72
2022-09-11T18:21:26.381Z,69.68
2022-09-11T18:23:54.741Z,70.08
2022-09-11T18:26:25.741Z,70.40
2022-09-11T18:28:59.986Z,70.44
2022-09-11T18:31:30.503Z,70.87
2022-09-11T18:34:01.831Z,71.34
2022-09-11T18:36:31.606Z,71.96
2022-09-11T18:39:01.931Z,71.77
2022-09-11T18:41:32.738Z,72.24
2022-09-11T18:44:02.255Z,72.80
2022-09-11T18:46:31.647Z,73.11
2022-09-11T18:49:03.427Z,73.20
2022-09-11T18:51:31.772Z,73.43
2022-09-11T18:54:00.254Z,73.68
2022-09-11T18:56:29.934Z,73.75
2022-09-11T18:59:00.207Z,74.10
2022-09-11T19:01:32.460Z,73.83
2022-09-11T19:04:06.648Z,73.98
2022-09-11T19:06:34.748Z,73.77
2022-09-11T19:09:02.729Z,73.87
2022-09-11T19:11:32.482Z,73.84
2022-09-11T19:14:04.844Z,73.96
2022-09-11T19:16:33.843Z,73.95
2022-09-11T19:19:03.400Z,73.92
2022-09-11T19:21:31.786Z,74.03
2022-09-11T19:24:01.581Z,74.53
2022-09-11T19:26:33.889Z,74.81
2022-09-11T19:29:01.989Z,75.21
2022-09-11T19:31:30.908Z,75.24
2022-09-11T19:34:01.875Z,75.83
2022-09-11T19:36:33.214Z,75.57
2022-09-11T19:39:01.729Z,76.13
2022-09-11T19:41:31.545Z,76.92
2022-09-11T19:44:01.633Z,76.63
2022-09-11T19:46:31.446Z,76.53
2022-09-11T19:49:02.785Z,76.84
2022-09-11T19:51:33.755Z,77.00
2022-09-11T19:54:03.669Z,77.31
2022-09-11T19:56:33.889Z,77.61
2022-09-11T19:59:02.259Z,78.09
2022-09-11T20:01:31.729Z,77.60
2022-09-11T20:04:01.029Z,78.63
2022-09-11T20:06:33.008Z,77.81
2022-09-11T20:11:50.013Z,77.71
2022-09-11T20:14:18.047Z,77.60
2022-09-11T20:16:46.025Z,78.09
2022-09-11T20:19:14.923Z,77.94
2022-09-11T20:21:44.621Z,77.46
2022-09-11T20:24:12.625Z,77.61
2022-09-11T20:26:40.648Z,78.10
2022-09-11T20:29:13.713Z,78.32
2022-09-11T20:31:47.831Z,78.74
2022-09-11T20:34:20.165Z,78.15
2022-09-11T20:36:49.691Z,78.39
2022-09-11T20:39:17.772Z,78.28
2022-09-11T20:41:46.107Z,79.11
2022-09-11T20:44:14.139Z,78.63
2022-09-11T20:46:47.402Z,78.66
2022-09-11T20:49:20.696Z,79.29
2022-09-11T20:51:50.243Z,78.66
2022-09-11T20:54:18.331Z,79.16
2022-09-11T20:56:46.460Z,79.85
2022-09-11T20:59:14.830Z,80.47
2022-09-11T21:01:43.242Z,79.54
2022-09-11T21:04:11.545Z,79.86
2022-09-11T21:06:39.456Z,80.69
2022-09-11T21:09:10.957Z,80.37
2022-09-11T21:11:40.432Z,80.15
2022-09-11T21:14:08.608Z,79.92
2022-09-11T21:16:36.801Z,80.85
2022-09-11T21:19:05.900Z,81.71
2022-09-11T21:21:35.361Z,81.50
2022-09-11T21:24:05.236Z,81.50
2022-09-11T21:26:35.846Z,82.28
2022-09-11T21:29:06.484Z,81.26
2022-09-11T21:31:35.744Z,80.50
2022-09-11T21:34:04.060Z,80.35
2022-09-11T21:36:34.474Z,80.64
2022-09-11T21:39:02.402Z,82.59
2022-09-11T21:41:30.401Z,81.89
2022-09-11T21:43:59.715Z,82.64
2022-09-11T21:46:27.820Z,81.21
2022-09-11T21:48:55.818Z,81.35
2022-09-11T21:51:23.840Z,81.11
2022-09-11T21:53:58.057Z,82.28
2022-09-11T21:56:29.431Z,81.74
2022-09-11T21:58:59.582Z,81.88
2022-09-11T22:01:28.635Z,81.58
2022-09-11T22:03:56.834Z,83.18
2022-09-11T22:06:25.708Z,84.33
2022-09-11T22:08:54.519Z,82.85
2022-09-11T22:11:22.974Z,84.54
2022-09-11T22:13:52.895Z,84.23
2022-09-11T22:16:23.012Z,84.30
2022-09-11T22:18:52.744Z,84.54
2022-09-11T22:21:20.810Z,82.58
2022-09-11T22:23:48.941Z,83.29
2022-09-11T22:26:19.192Z,82.97
2022-09-11T22:28:47.279Z,83.34
2022-09-11T22:31:17.659Z,83.88
2022-09-11T22:33:47.126Z,84.37
2022-09-11T22:36:17.775Z,84.44
2022-09-11T22:38:45.850Z,82.47
2022-09-11T22:41:14.051Z,83.46
2022-09-11T22:43:42.414Z,83.84
2022-09-11T22:46:10.731Z,84.19
2022-09-11T22:48:38.686Z,84.10
2022-09-11T22:51:08.314Z,83.36
2022-09-11T22:53:36.398Z,83.98
2022-09-11T22:56:04.387Z,84.63
2022-09-11T22:58:32.492Z,84.87
2022-09-11T23:01:03.489Z,84.76
2022-09-11T23:03:31.810Z,85.89
2022-09-11T23:06:19.371Z,84.42
2022-09-11T23:08:49.540Z,84.19
2022-09-11T23:11:19.923Z,84.48
2022-09-11T23:13:49.001Z,84.51
2022-09-11T23:16:19.237Z,84.21
2022-09-11T23:18:47.845Z,83.30
2022-09-11T23:21:16.073Z,83.00
2022-09-11T23:23:45.222Z,85.03
2022-09-11T23:26:15.026Z,85.58
2022-09-11T23:28:43.295Z,86.83
2022-09-11T23:31:12.216Z,85.14
2022-09-11T23:33:40.352Z,84.67
2022-09-11T23:36:10.151Z,84.42
2022-09-11T23:38:38.537Z,84.35
2022-09-11T23:41:07.168Z,84.34
2022-09-11T23:43:36.518Z,84.82
2022-09-11T23:46:04.615Z,84.49
2022-09-11T23:48:32.695Z,84.28
2022-09-11T23:51:01.359Z,84.53
2022-09-11T23:53:29.641Z,84.14
2022-09-11T23:55:58.140Z,85.69
2022-09-11T23:58:26.545Z,86.69
